Time;durP1;ratioP1;P1;durP2;ratioP2;P2;SDS_P1;SDS_P2;PMS_P1;PMS_P2;Temp;Humidity;BMP_temperature;BMP_pressure;BME280_temperature;BME280_humidity;BME280_pressure;Samples;Min_cycle;Max_cycle;Signal;HPM_P1;HPM_P2
2021/08/12 00:01:07;;;;;;;12.30;10.58;;;;;;;15.25;68.51;100942.31;127944;1098;25184;-79
2021/08/12 00:03:37;;;;;;;11.53;10.30;;;;;;;15.20;68.88;100939.39;127961;1098;23121;-77
2021/08/12 00:06:07;;;;;;;12.70;10.50;;;;;;;15.17;69.00;100945.08;127959;1098;22844;-77
2021/08/12 00:08:36;;;;;;;15.80;11.55;;;;;;;15.13;69.13;100942.95;127979;1098;22365;-78
2021/08/12 00:11:07;;;;;;;12.00;10.25;;;;;;;15.09;69.18;100949.65;128177;1095;22333;-77
2021/08/12 00:13:36;;;;;;;12.55;10.10;;;;;;;15.05;69.39;100949.19;128312;1095;22356;-78
2021/08/12 00:16:06;;;;;;;12.53;11.03;;;;;;;15.00;69.54;100957.73;128257;1095;22337;-78
2021/08/12 00:18:35;;;;;;;14.85;11.28;;;;;;;14.97;69.73;100959.93;128585;1095;22820;-78
2021/08/12 00:21:05;;;;;;;11.65;10.40;;;;;;;14.93;69.67;100962.13;128272;1095;22353;-78
2021/08/12 00:23:35;;;;;;;11.30;10.13;;;;;;;14.90;69.82;100962.48;128265;1095;22340;-78
2021/08/12 00:26:04;;;;;;;13.75;9.73;;;;;;;14.87;69.92;100968.17;128284;1095;22337;-78
2021/08/12 00:28:34;;;;;;;12.50;10.73;;;;;;;14.86;70.09;100965.67;128276;1095;22785;-78
2021/08/12 00:31:04;;;;;;;10.78;9.68;;;;;;;14.83;70.18;100967.70;128555;1095;22353;-77
2021/08/12 00:33:34;;;;;;;11.93;10.75;;;;;;;14.79;70.17;100971.73;128246;1095;22337;-77
2021/08/12 00:36:05;;;;;;;11.73;10.58;;;;;;;14.76;70.01;100971.24;128352;1095;22659;-78
2021/08/12 00:38:36;;;;;;;11.18;10.08;;;;;;;14.74;70.56;100971.44;128259;1095;22337;-77
2021/08/12 00:41:05;;;;;;;10.48;8.58;;;;;;;14.72;70.45;100970.78;128295;1095;22355;-77
2021/08/12 00:43:36;;;;;;;12.07;10.50;;;;;;;14.70;70.61;100977.30;128277;1095;22356;-77
2021/08/12 00:46:07;;;;;;;13.25;10.78;;;;;;;14.66;70.66;100978.65;128287;1095;22355;-77
2021/08/12 00:48:39;;;;;;;12.28;10.98;;;;;;;14.63;70.69;100971.88;128266;1095;22328;-78
2021/08/12 00:51:10;;;;;;;14.78;11.08;;;;;;;14.61;70.67;100976.53;128242;1095;25031;-78
2021/08/12 00:53:39;;;;;;;11.30;10.20;;;;;;;14.57;70.76;100976.06;128265;1095;22359;-77
2021/08/12 00:56:09;;;;;;;12.40;9.83;;;;;;;14.54;70.82;100971.11;128274;1095;22372;-78
2021/08/12 00:58:39;;;;;;;12.53;9.75;;;;;;;14.50;70.67;100977.80;128559;1095;24503;-77
2021/08/12 01:01:10;;;;;;;11.47;10.20;;;;;;;14.46;70.82;100976.47;128285;1095;22348;-78
2021/08/12 01:03:40;;;;;;;13.08;9.93;;;;;;;14.44;71.11;100977.64;128302;1095;22446;-78
2021/08/12 01:06:12;;;;;;;11.38;10.28;;;;;;;14.40;70.97;100977.17;128276;1095;22359;-78
2021/08/12 01:08:58;;;;;;;12.00;10.35;;;;;;;14.39;71.11;100978.16;128271;1095;22447;-78
2021/08/12 01:11:49;;;;;;;12.18;9.65;;;;;;;14.35;71.36;100979.52;128326;1094;22456;-78
2021/08/12 01:15:03;;;;;;;12.45;11.15;;;;;;;14.31;71.68;100980.88;128385;1095;22809;-78
2021/08/12 01:18:14;;;;;;;15.63;9.95;;;;;;;14.25;71.12;100987.72;127969;1098;23073;-78
2021/08/12 01:21:02;;;;;;;12.75;10.48;;;;;;;14.21;71.46;100980.30;127993;1098;22386;-77
2021/08/12 01:23:32;;;;;;;12.58;10.25;;;;;;;14.19;71.63;100979.63;127934;1098;22416;-78
2021/08/12 01:26:04;;;;;;;11.40;9.85;;;;;;;14.20;71.76;100981.30;128029;1098;22372;-78
2021/08/12 01:28:43;;;;;;;12.10;10.73;;;;;;;14.18;71.90;100981.47;128055;1098;22375;-77
2021/08/12 01:31:58;;;;;;;14.40;10.20;;;;;;;14.17;71.86;100989.63;127963;1098;22458;-78
2021/08/12 01:35:16;;;;;;;11.95;10.23;;;;;;;14.15;71.96;100987.13;127971;1101;22367;-78
2021/08/12 01:37:52;;;;;;;12.93;10.58;;;;;;;14.09;71.98;100978.05;127502;1104;22400;-77
2021/08/12 01:40:25;;;;;;;11.35;9.88;;;;;;;14.09;72.15;100982.51;127092;1105;22393;-78
2021/08/12 01:42:56;;;;;;;11.48;10.35;;;;;;;14.08;72.26;100973.72;127357;1104;22389;-78
2021/08/12 01:45:29;;;;;;;13.53;10.00;;;;;;;14.08;72.25;100978.20;127039;1104;24527;-78
2021/08/12 01:48:00;;;;;;;11.53;10.30;;;;;;;14.05;72.34;100976.72;127481;1101;22365;-77
2021/08/12 01:50:32;;;;;;;11.95;10.05;;;;;;;14.06;72.33;100978.40;127524;1101;22369;-78
2021/08/12 01:53:03;;;;;;;;;;;;;;;14.01;72.29;100986.05;127643;1101;23963;-77
2021/08/12 01:55:34;;;;;;;12.88;9.38;;;;;;;13.95;72.42;100988.58;127910;1101;21270;-76
2021/08/12 01:58:05;;;;;;;13.43;10.98;;;;;;;13.94;72.33;100989.59;127493;1101;22416;-77
2021/08/12 02:00:36;;;;;;;12.78;11.30;;;;;;;13.94;72.64;100984.27;127493;1101;22386;-78
2021/08/12 02:03:08;;;;;;;12.88;10.08;;;;;;;13.93;72.82;100985.25;127545;1101;22388;-77
2021/08/12 02:05:39;;;;;;;14.75;10.95;;;;;;;13.93;72.75;100986.11;127443;1101;22402;-78
2021/08/12 02:08:09;;;;;;;11.08;9.93;;;;;;;13.92;72.82;100987.09;127437;1101;22804;-78
2021/08/12 02:10:39;;;;;;;13.68;12.28;;;;;;;13.94;73.16;100990.41;127659;1098;22390;-77
2021/08/12 02:13:12;;;;;;;12.28;10.80;;;;;;;13.95;73.11;100980.61;128206;1095;24294;-77
2021/08/12 02:15:42;;;;;;;16.40;11.35;;;;;;;13.94;73.20;100990.41;128267;1093;22343;-78
2021/08/12 02:18:12;;;;;;;14.80;11.33;;;;;;;13.93;72.87;100991.42;128281;1093;22345;-77
2021/08/12 02:20:47;;;;;;;12.88;11.40;;;;;;;13.91;72.38;100990.75;128263;1095;22344;-77
2021/08/12 02:23:34;;;;;;;13.45;11.10;;;;;;;13.89;73.02;100993.59;128290;1095;22343;-78
2021/08/12 02:26:15;;;;;;;13.93;10.30;;;;;;;13.87;73.19;100982.31;128545;1095;22359;-78
2021/08/12 02:28:45;;;;;;;15.88;10.88;;;;;;;13.85;73.43;100989.61;128657;1095;22359;-79
2021/08/12 02:31:19;;;;;;;14.73;12.53;;;;;;;13.82;72.94;100987.30;128292;1095;22369;-78
2021/08/12 02:33:50;;;;;;;12.50;10.93;;;;;;;13.80;73.25;100991.16;128381;1095;23275;-78
2021/08/12 02:36:20;;;;;;;14.85;11.28;;;;;;;13.77;73.23;100992.31;128285;1095;22343;-79
2021/08/12 02:38:51;;;;;;;17.60;12.50;;;;;;;13.74;73.25;100994.50;128314;1095;22347;-78
2021/08/12 02:41:23;;;;;;;14.23;11.63;;;;;;;13.71;73.25;101000.15;128309;1095;22356;-78
2021/08/12 02:43:54;;;;;;;14.73;11.55;;;;;;;13.68;73.16;100998.66;128357;1095;22362;-77
2021/08/12 02:46:27;;;;;;;14.03;11.43;;;;;;;13.65;73.53;100997.16;128555;1095;22788;-77
2021/08/12 02:48:58;;;;;;;18.45;13.60;;;;;;;13.62;73.38;100992.20;128341;1095;22344;-77
2021/08/12 02:51:32;;;;;;;21.70;17.85;;;;;;;13.60;73.65;100996.88;128574;1095;22361;-78
2021/08/12 02:54:05;;;;;;;15.85;14.18;;;;;;;13.57;73.55;100986.59;128317;1095;25027;-78
2021/08/12 02:56:37;;;;;;;15.25;11.98;;;;;;;13.55;73.74;100996.55;128159;1098;22362;-78
2021/08/12 02:59:07;;;;;;;15.37;11.40;;;;;;;13.52;73.33;101002.19;127959;1098;22541;-79
2021/08/12 03:01:40;;;;;;;13.68;12.13;;;;;;;13.51;73.85;101003.20;128190;1098;22673;-77
2021/08/12 03:04:09;;;;;;;14.08;11.60;;;;;;;13.50;73.76;101000.73;128178;1098;22354;-77
2021/08/12 03:06:40;;;;;;;15.70;12.73;;;;;;;13.49;73.99;100997.22;128154;1098;22472;-76
2021/08/12 03:09:10;;;;;;;16.63;12.18;;;;;;;13.47;73.86;101001.89;128157;1098;22354;-78
2021/08/12 03:11:40;;;;;;;13.08;11.70;;;;;;;13.44;73.98;100993.45;128149;1098;22801;-78
2021/08/12 03:14:11;;;;;;;18.43;13.83;;;;;;;13.43;74.00;100995.28;128188;1095;22719;-77
2021/08/12 03:16:42;;;;;;;14.65;12.70;;;;;;;13.41;73.91;100999.91;128315;1094;23915;-78
2021/08/12 03:19:12;;;;;;;15.35;12.20;;;;;;;13.39;74.03;100994.80;128265;1095;22359;-78
2021/08/12 03:22:11;;;;;;;13.70;11.80;;;;;;;13.38;74.12;100997.59;128631;1095;22366;-78
2021/08/12 03:24:46;;;;;;;14.10;12.13;;;;;;;13.36;74.34;100994.27;128544;1095;22805;-78
2021/08/12 03:27:17;;;;;;;15.17;12.70;;;;;;;13.35;74.31;100997.94;128328;1095;23406;-77
2021/08/12 03:29:50;;;;;;;15.83;13.43;;;;;;;13.34;74.26;100998.94;128278;1095;22358;-78
2021/08/12 03:32:21;;;;;;;17.33;11.83;;;;;;;13.32;74.34;100999.09;128250;1095;24237;-77
2021/08/12 03:34:51;;;;;;;16.20;12.50;;;;;;;13.33;74.41;101002.61;128585;1095;24962;-78
2021/08/12 03:37:21;;;;;;;17.73;12.90;;;;;;;13.33;74.66;100999.95;128253;1095;22359;-77
2021/08/12 03:39:51;;;;;;;19.50;12.83;;;;;;;13.34;74.57;101005.08;128329;1095;22359;-78
2021/08/12 03:42:21;;;;;;;17.88;14.40;;;;;;;13.33;74.60;101006.08;128625;1095;22342;-79
2021/08/12 03:44:51;;;;;;;21.05;12.25;;;;;;;13.32;74.80;101009.71;128288;1095;24524;-78
2021/08/12 03:47:21;;;;;;;17.08;12.35;;;;;;;13.33;74.77;101010.56;128612;1095;22356;-77
2021/08/12 03:49:52;;;;;;;12.63;11.25;;;;;;;13.36;74.89;101021.67;128574;1095;22341;-77
2021/08/12 03:52:22;;;;;;;20.25;13.40;;;;;;;13.38;74.89;101018.83;128278;1095;24220;-77
2021/08/12 03:54:51;;;;;;;15.33;12.60;;;;;;;13.39;74.68;101020.47;128296;1095;22427;-77
2021/08/12 03:57:20;;;;;;;13.13;11.73;;;;;;;13.40;74.74;101027.46;128341;1095;22345;-77
2021/08/12 03:59:50;;;;;;;14.35;11.85;;;;;;;13.38;74.67;101026.80;128291;1095;22363;-76
2021/08/12 04:02:20;;;;;;;13.00;11.28;;;;;;;13.39;74.66;101023.13;128282;1095;24247;-77
2021/08/12 04:04:49;;;;;;;13.10;11.70;;;;;;;13.41;74.54;101023.80;128543;1095;22343;-77
2021/08/12 04:07:19;;;;;;;15.38;12.83;;;;;;;13.43;74.58;101024.47;128567;1095;22358;-77
2021/08/12 04:09:48;;;;;;;15.53;13.43;;;;;;;13.46;74.54;101026.75;128574;1095;22348;-77
2021/08/12 04:12:18;;;;;;;17.33;14.03;;;;;;;13.52;74.58;101026.08;128573;1095;22350;-78
2021/08/12 04:14:47;;;;;;;14.60;13.20;;;;;;;13.58;74.45;101030.71;128584;1095;22324;-77
2021/08/12 04:17:17;;;;;;;15.98;13.33;;;;;;;13.62;74.56;101029.36;128573;1095;22343;-77
2021/08/12 04:19:47;;;;;;;16.40;13.55;;;;;;;13.64;74.25;101032.69;128190;1095;22353;-77
2021/08/12 04:22:17;;;;;;;15.90;13.00;;;;;;;13.70;74.13;101030.36;128581;1093;24509;-77
2021/08/12 04:24:46;;;;;;;14.05;12.03;;;;;;;13.71;73.89;101035.48;128268;1095;23109;-78
2021/08/12 04:27:17;;;;;;;16.00;13.53;;;;;;;13.73;74.03;101033.50;128618;1095;22342;-78
2021/08/12 04:29:47;;;;;;;15.47;13.10;;;;;;;13.79;74.08;101037.27;128580;1095;23370;-79
2021/08/12 04:32:17;;;;;;;16.23;13.25;;;;;;;13.83;74.04;101038.61;128270;1095;24579;-79
2021/08/12 04:34:47;;;;;;;16.48;14.05;;;;;;;13.88;73.68;101041.56;128301;1095;22366;-81
2021/08/12 04:37:17;;;;;;;15.18;13.48;;;;;;;13.90;73.64;101050.20;128550;1093;22363;-79
2021/08/12 04:39:47;;;;;;;13.65;12.35;;;;;;;13.95;73.59;101047.83;128233;1095;22350;-79
2021/08/12 04:42:17;;;;;;;16.05;12.83;;;;;;;14.02;73.68;101051.45;128258;1095;22368;-79
2021/08/12 04:44:47;;;;;;;14.43;12.88;;;;;;;14.11;73.44;101046.94;128248;1095;22340;-78
2021/08/12 04:47:17;;;;;;;14.63;13.20;;;;;;;14.22;73.38;101057.16;128560;1095;22347;-79
2021/08/12 04:49:47;;;;;;;18.38;13.20;;;;;;;14.31;73.34;101056.13;128283;1095;22411;-79
2021/08/12 04:52:17;;;;;;;16.63;13.13;;;;;;;14.42;73.31;101060.20;128260;1095;24168;-79
2021/08/12 04:54:48;;;;;;;15.40;13.58;;;;;;;14.55;73.32;101057.83;128232;1095;22356;-75
2021/08/12 04:57:17;;;;;;;18.15;13.05;;;;;;;14.67;73.01;101049.46;128271;1095;22368;-79
2021/08/12 04:59:47;;;;;;;16.78;12.00;;;;;;;14.75;72.30;101057.36;128220;1095;22366;-79
2021/08/12 05:02:16;;;;;;;16.75;14.20;;;;;;;14.79;72.10;101056.00;128215;1095;22654;-78
2021/08/12 05:04:46;;;;;;;17.48;13.08;;;;;;;14.82;71.81;101055.64;128281;1095;22338;-78
2021/08/12 05:07:16;;;;;;;17.15;13.10;;;;;;;14.88;71.68;101049.61;128341;1095;23095;-79
2021/08/12 05:09:48;;;;;;;14.68;13.15;;;;;;;14.98;71.72;101052.85;128297;1095;22355;-79
2021/08/12 05:12:20;;;;;;;22.28;13.23;;;;;;;15.08;71.06;101060.59;128663;1094;22344;-78
2021/08/12 05:14:50;;;;;;;13.90;12.50;;;;;;;15.22;71.17;101061.63;128309;1095;22341;-77
2021/08/12 05:17:21;;;;;;;;;;;;;;;15.35;71.47;101064.48;128253;1095;22824;-78
2021/08/12 05:19:51;;;;;;;16.20;13.55;;;;;;;15.53;71.67;101077.47;128300;1095;21141;-78
2021/08/12 05:22:23;;;;;;;15.35;13.63;;;;;;;15.81;71.35;101067.03;128239;1095;22348;-79
2021/08/12 05:24:54;;;;;;;17.05;13.08;;;;;;;16.11;70.50;101072.33;128282;1095;22359;-79
2021/08/12 05:27:24;;;;;;;19.88;13.68;;;;;;;16.41;70.28;101071.24;128345;1095;22337;-79
2021/08/12 05:29:54;;;;;;;16.13;14.30;;;;;;;16.74;69.82;101073.43;128301;1095;22337;-79
2021/08/12 05:32:23;;;;;;;18.20;12.85;;;;;;;17.07;69.34;101084.44;128299;1095;22347;-80
2021/08/12 05:34:53;;;;;;;19.33;14.33;;;;;;;17.42;68.67;101079.14;128219;1095;22396;-80
2021/08/12 05:37:24;;;;;;;21.98;13.18;;;;;;;17.78;67.61;101078.17;128316;1095;23417;-79
2021/08/12 05:39:54;;;;;;;20.48;13.33;;;;;;;18.13;66.83;101073.63;128298;1095;22785;-79
2021/08/12 05:42:24;;;;;;;17.30;12.95;;;;;;;18.50;65.91;101082.99;128310;1095;22347;-79
2021/08/12 05:44:55;;;;;;;17.40;13.70;;;;;;;18.89;64.61;101078.75;128403;1095;22352;-79
2021/08/12 05:47:25;;;;;;;15.78;12.33;;;;;;;19.27;63.67;101078.15;128286;1095;22353;-78
2021/08/12 05:49:55;;;;;;;15.13;12.60;;;;;;;19.58;62.08;101082.83;128294;1095;23883;-80
2021/08/12 05:52:25;;;;;;;15.00;12.83;;;;;;;19.86;61.47;101095.16;128288;1095;22351;-79
2021/08/12 05:54:54;;;;;;;16.73;12.80;;;;;;;20.05;60.82;101086.23;128235;1095;22340;-79
2021/08/12 05:57:24;;;;;;;16.85;12.65;;;;;;;20.44;60.93;101093.28;128294;1095;22370;-79
2021/08/12 05:59:53;;;;;;;33.33;26.48;;;;;;;20.93;60.16;101090.95;128266;1095;22369;-79
2021/08/12 06:02:23;;;;;;;17.55;15.23;;;;;;;21.38;58.57;101085.41;128284;1095;22384;-79
2021/08/12 06:04:54;;;;;;;15.00;13.40;;;;;;;21.78;57.14;101093.08;128254;1096;22351;-78
2021/08/12 06:07:24;;;;;;;18.08;13.45;;;;;;;21.93;55.68;101084.65;128292;1095;22799;-78
2021/08/12 06:09:53;;;;;;;18.63;12.48;;;;;;;22.06;54.72;101090.69;128272;1095;22339;-77
2021/08/12 06:12:23;;;;;;;16.25;13.08;;;;;;;22.24;54.93;101094.43;128297;1095;22343;-78
2021/08/12 06:14:52;;;;;;;15.40;12.60;;;;;;;22.55;54.41;101094.19;128277;1095;22343;-78
2021/08/12 06:17:22;;;;;;;21.75;12.93;;;;;;;22.87;53.45;101090.43;128538;1095;22360;-78
2021/08/12 06:19:53;;;;;;;16.63;12.27;;;;;;;23.04;53.06;101094.12;128298;1095;22373;-78
2021/08/12 06:22:23;;;;;;;19.10;11.95;;;;;;;23.28;52.62;101100.34;128316;1094;24528;-78
2021/08/12 06:24:53;;;;;;;14.38;10.83;;;;;;;23.68;52.03;101097.77;128287;1095;22354;-78
2021/08/12 06:27:22;;;;;;;17.28;10.63;;;;;;;24.11;50.94;101098.40;128216;1095;22364;-79
2021/08/12 06:29:52;;;;;;;23.13;11.30;;;;;;;24.40;49.96;101100.09;128569;1095;23096;-78
2021/08/12 06:32:22;;;;;;;10.25;8.63;;;;;;;24.68;49.56;101109.22;128183;1098;22375;-77
2021/08/12 06:34:52;;;;;;;10.10;8.40;;;;;;;24.99;48.70;101107.04;128217;1098;22363;-78
2021/08/12 06:37:24;;;;;;;9.80;7.73;;;;;;;25.17;47.74;101098.73;128185;1098;22363;-77
2021/08/12 06:39:54;;;;;;;8.90;6.50;;;;;;;25.50;47.39;101107.88;128250;1098;22364;-78
2021/08/12 06:42:24;;;;;;;10.30;6.03;;;;;;;25.84;46.19;101102.41;128233;1097;22369;-78
2021/08/12 06:45:00;;;;;;;6.77;6.00;;;;;;;26.14;45.00;101100.07;128169;1098;23290;-78
2021/08/12 06:47:30;;;;;;;6.70;5.60;;;;;;;26.43;44.06;101097.14;127985;1098;22379;-79
2021/08/12 06:49:59;;;;;;;10.13;5.10;;;;;;;26.66;43.03;101099.58;128125;1095;24525;-79
2021/08/12 06:52:29;;;;;;;6.45;5.58;;;;;;;26.84;42.40;101090.23;128288;1095;23504;-79
2021/08/12 06:55:03;;;;;;;9.83;6.10;;;;;;;26.94;42.11;101095.73;128347;1098;24522;-77
2021/08/12 06:57:33;;;;;;;7.88;5.83;;;;;;;27.08;42.36;101095.30;128215;1098;22395;-79
2021/08/12 07:00:06;;;;;;;8.15;5.93;;;;;;;27.34;41.99;101088.20;128230;1098;22450;-78
2021/08/12 07:02:36;;;;;;;10.98;5.33;;;;;;;27.54;41.15;101091.03;128032;1098;22350;-78
2021/08/12 07:05:07;;;;;;;6.60;4.95;;;;;;;27.75;40.72;101099.27;128190;1098;24509;-78
2021/08/12 07:07:39;;;;;;;7.55;5.08;;;;;;;27.91;39.77;101090.95;128234;1098;22350;-77
2021/08/12 07:10:09;;;;;;;5.18;3.83;;;;;;;27.90;39.36;101092.05;128018;1098;22369;-79
2021/08/12 07:12:39;;;;;;;6.20;4.20;;;;;;;28.07;38.78;101099.17;128000;1093;22372;-78
2021/08/12 07:15:09;;;;;;;5.75;4.80;;;;;;;28.21;38.72;101096.77;128583;1095;24249;-78
2021/08/12 07:17:38;;;;;;;4.97;3.93;;;;;;;28.35;38.48;101101.41;128212;1098;22427;-79
2021/08/12 07:20:09;;;;;;;6.45;4.70;;;;;;;28.52;38.01;101100.39;127888;1098;24514;-79
2021/08/12 07:22:39;;;;;;;5.30;4.18;;;;;;;28.58;38.31;101099.31;127951;1098;22372;-79
2021/08/12 07:25:10;;;;;;;4.88;3.55;;;;;;;28.76;37.97;101097.99;127935;1096;22379;-78
2021/08/12 07:27:40;;;;;;;5.60;4.05;;;;;;;28.93;37.12;101097.72;128070;1098;22382;-78
2021/08/12 07:30:11;;;;;;;4.68;3.03;;;;;;;29.10;36.43;101105.63;128191;1098;22389;-79
2021/08/12 07:32:40;;;;;;;8.10;4.20;;;;;;;29.32;36.13;101108.84;127907;1101;22395;-79
2021/08/12 07:35:11;;;;;;;6.25;3.88;;;;;;;29.49;35.34;101112.09;127433;1101;22391;-79
2021/08/12 07:37:43;;;;;;;7.85;3.60;;;;;;;29.45;35.23;101115.63;128002;1098;22635;-78
2021/08/12 07:40:14;;;;;;;4.18;3.53;;;;;;;29.59;34.96;101122.15;128165;1098;22411;-77
2021/08/12 07:42:44;;;;;;;3.37;3.07;;;;;;;29.83;35.04;101122.38;128192;1098;22377;-78
2021/08/12 07:45:14;;;;;;;4.00;3.23;;;;;;;29.90;34.55;101119.35;128046;1098;22372;-78
2021/08/12 07:47:43;;;;;;;8.10;3.60;;;;;;;30.09;33.74;101116.80;127869;1101;22406;-78
2021/08/12 07:50:13;;;;;;;4.93;3.53;;;;;;;30.07;33.42;101125.27;127977;1098;22395;-78
2021/08/12 07:52:43;;;;;;;4.48;3.88;;;;;;;30.12;33.45;101119.77;128180;1098;23052;-78
2021/08/12 07:55:13;;;;;;;5.78;3.75;;;;;;;30.11;33.55;101117.34;128173;1098;22361;-79
2021/08/12 07:57:43;;;;;;;5.95;3.08;;;;;;;30.27;33.47;101109.94;128472;1098;24180;-78
2021/08/12 08:00:14;;;;;;;3.37;3.00;;;;;;;30.48;32.04;101116.88;128220;1098;22353;-79
2021/08/12 08:02:46;;;;;;;5.95;3.70;;;;;;;30.50;31.87;101111.97;128061;1098;22375;-78
2021/08/12 08:05:20;;;;;;;5.18;3.50;;;;;;;30.10;31.90;101113.81;128292;1095;22344;-77
2021/08/12 08:07:52;;;;;;;6.08;2.80;;;;;;;29.90;32.12;101117.44;128268;1095;24240;-78
2021/08/12 08:10:27;;;;;;;6.33;3.20;;;;;;;30.02;32.23;101119.83;128406;1095;22369;-78
2021/08/12 08:12:57;;;;;;;4.63;3.05;;;;;;;30.10;31.80;101119.25;128614;1094;22370;-78
2021/08/12 08:15:27;;;;;;;6.55;3.20;;;;;;;30.20;31.93;101121.96;128267;1095;22366;-77
2021/08/12 08:18:04;;;;;;;4.90;3.20;;;;;;;30.37;31.43;101121.59;128279;1095;22366;-78
2021/08/12 08:20:33;;;;;;;4.35;3.28;;;;;;;30.34;30.97;101124.06;128574;1094;22350;-78
2021/08/12 08:23:06;;;;;;;5.63;3.05;;;;;;;30.18;30.93;101128.75;128581;1095;22350;-78
2021/08/12 08:25:37;;;;;;;5.48;3.45;;;;;;;30.16;30.71;101126.31;128570;1095;24991;-78
2021/08/12 08:28:06;;;;;;;4.65;3.00;;;;;;;30.25;30.95;101132.81;128617;1095;22350;-78
2021/08/12 08:30:38;;;;;;;5.55;3.00;;;;;;;30.29;30.77;101124.08;128246;1095;23681;-78
2021/08/12 08:33:11;;;;;;;6.93;2.33;;;;;;;30.47;30.06;101126.17;128781;1095;24586;-79
2021/08/12 08:35:41;;;;;;;4.00;3.25;;;;;;;30.66;29.95;101124.41;128312;1095;22354;-78
2021/08/12 08:38:10;;;;;;;5.93;4.00;;;;;;;30.81;29.76;101128.14;128569;1095;24486;-78
2021/08/12 08:40:40;;;;;;;3.80;3.00;;;;;;;30.79;29.44;101133.89;128321;1093;22368;-78
2021/08/12 08:43:11;;;;;;;7.43;3.28;;;;;;;30.61;29.88;101126.34;128817;1095;22354;-77
2021/08/12 08:45:44;;;;;;;4.70;2.67;;;;;;;30.58;30.18;101121.45;128260;1095;22346;-78
2021/08/12 08:48:16;;;;;;;4.28;3.23;;;;;;;30.64;30.10;101125.78;128384;1095;24878;-79
2021/08/12 08:50:46;;;;;;;2.98;2.63;;;;;;;30.80;29.83;101130.06;128488;1095;23116;-80
2021/08/12 08:53:17;;;;;;;5.10;2.65;;;;;;;30.88;30.22;101129.44;128585;1094;24874;-79
2021/08/12 08:55:47;;;;;;;2.90;2.45;;;;;;;31.03;29.34;101127.70;128788;1095;22344;-77
2021/08/12 08:58:20;;;;;;;5.38;3.05;;;;;;;31.11;29.42;101124.34;128565;1095;22350;-78
2021/08/12 09:00:51;;;;;;;3.35;2.60;;;;;;;31.25;29.20;101128.02;128476;1095;22350;-78
2021/08/12 09:03:21;;;;;;;3.80;3.25;;;;;;;31.25;28.66;101122.56;128313;1095;22342;-78
2021/08/12 09:05:51;;;;;;;4.93;2.80;;;;;;;31.35;28.40;101117.03;128600;1095;24776;-79
2021/08/12 09:08:21;;;;;;;4.60;2.68;;;;;;;31.38;28.25;101124.64;128571;1095;22369;-78
2021/08/12 09:10:50;;;;;;;4.20;2.48;;;;;;;31.45;28.46;101118.84;128600;1095;23110;-77
2021/08/12 09:13:20;;;;;;;4.95;3.23;;;;;;;31.24;28.45;101122.86;128603;1093;22362;-78
2021/08/12 09:15:49;;;;;;;4.18;3.25;;;;;;;31.34;28.47;101112.69;128557;1095;22347;-78
2021/08/12 09:18:25;;;;;;;3.30;2.77;;;;;;;31.54;28.17;101113.58;128473;1095;22409;-77
2021/08/12 09:21:20;;;;;;;5.33;2.75;;;;;;;31.56;28.11;101123.11;128601;1095;22339;-79
2021/08/12 09:23:57;;;;;;;5.03;2.43;;;;;;;31.38;27.92;101123.83;128578;1095;22833;-77
2021/08/12 09:26:28;;;;;;;5.20;2.80;;;;;;;31.41;28.01;101134.19;128605;1093;22353;-77
2021/08/12 09:28:58;;;;;;;3.78;2.68;;;;;;;31.51;28.15;101130.53;128271;1095;22339;-77
2021/08/12 09:31:28;;;;;;;3.08;2.70;;;;;;;31.59;27.68;101135.34;129063;1095;22323;-77
2021/08/12 09:33:57;;;;;;;4.70;2.83;;;;;;;31.59;27.70;101127.16;128596;1095;24162;-78
2021/08/12 09:36:28;;;;;;;3.73;2.53;;;;;;;31.40;27.00;101127.91;128568;1095;24176;-78
2021/08/12 09:39:11;;;;;;;7.83;3.55;;;;;;;31.23;27.21;101126.70;128599;1095;22368;-78
2021/08/12 09:41:50;;;;;;;5.80;2.80;;;;;;;31.06;27.50;101132.59;128593;1095;22708;-78
2021/08/12 09:44:51;;;;;;;5.30;3.75;;;;;;;31.28;28.08;101126.64;128467;1095;22346;-77
2021/08/12 09:47:23;;;;;;;;;;;;;;;31.55;28.02;101126.11;128662;1095;22427;-77
2021/08/12 09:50:00;;;;;;;4.40;3.30;;;;;;;31.79;27.16;101124.22;128635;1095;23052;-77
2021/08/12 09:52:37;;;;;;;3.95;2.38;;;;;;;31.91;26.51;101126.55;128629;1095;23205;-77
2021/08/12 09:55:18;;;;;;;7.67;3.00;;;;;;;31.99;27.23;101127.81;128345;1094;22351;-78
2021/08/12 09:58:09;;;;;;;3.23;2.68;;;;;;;31.64;26.62;101130.66;128319;1095;22341;-77
2021/08/12 10:00:45;;;;;;;4.05;2.83;;;;;;;31.01;26.98;101127.16;128622;1095;22366;-77
2021/08/12 10:03:30;;;;;;;8.05;3.43;;;;;;;30.51;27.75;101120.97;128259;1095;24499;-77
2021/08/12 10:06:03;;;;;;;3.20;2.90;;;;;;;29.98;28.15;101108.67;128570;1095;22918;-76
2021/08/12 10:08:39;;;;;;;3.53;2.43;;;;;;;29.43;28.69;101113.20;128427;1095;22368;-76
2021/08/12 10:11:19;;;;;;;6.00;3.18;;;;;;;29.04;29.44;101107.53;128511;1095;24224;-78
2021/08/12 10:13:55;;;;;;;4.10;3.03;;;;;;;28.93;29.48;101105.88;128592;1095;22345;-78
2021/08/12 10:16:31;;;;;;;3.48;2.70;;;;;;;29.21;29.37;101107.23;128586;1095;22334;-77
2021/08/12 10:19:06;;;;;;;14.98;3.90;;;;;;;29.60;29.25;101110.19;128593;1093;23014;-78
2021/08/12 10:21:39;;;;;;;5.95;3.05;;;;;;;29.97;28.72;101107.05;128644;1095;22695;-79
2021/08/12 10:24:10;;;;;;;3.90;2.90;;;;;;;30.18;28.65;101113.23;128633;1095;22365;-79
2021/08/12 10:26:45;;;;;;;4.70;2.30;;;;;;;30.41;28.26;101119.92;128521;1094;22343;-77
2021/08/12 10:29:18;;;;;;;3.25;2.48;;;;;;;30.51;27.92;101115.51;128276;1095;22345;-78
2021/08/12 10:31:49;;;;;;;2.85;2.53;;;;;;;30.52;26.94;101112.48;128327;1095;22358;-78
2021/08/12 10:34:19;;;;;;;3.23;2.20;;;;;;;30.50;27.43;101114.70;128325;1095;22336;-78
2021/08/12 10:36:49;;;;;;;4.57;2.60;;;;;;;30.58;27.26;101116.00;128612;1095;22353;-77
2021/08/12 10:39:20;;;;;;;4.23;2.83;;;;;;;30.70;26.97;101114.55;128290;1095;23236;-78
2021/08/12 10:41:50;;;;;;;3.45;2.50;;;;;;;30.66;27.45;101113.50;128334;1095;22341;-77
2021/08/12 10:44:21;;;;;;;3.10;2.33;;;;;;;30.68;27.11;101115.93;128559;1095;22345;-79
2021/08/12 10:46:50;;;;;;;;;;;;;;;30.62;27.03;101119.78;128390;1095;22363;-78
2021/08/12 10:49:33;;;;;;;3.98;2.70;;;;;;;30.58;27.29;101110.55;128607;1095;21254;-78
2021/08/12 10:52:11;;;;;;;3.55;2.60;;;;;;;30.43;27.29;101109.56;128553;1095;22535;-77
2021/08/12 10:55:17;;;;;;;4.85;4.18;;;;;;;30.22;26.89;101102.59;128367;1095;22367;-79
2021/08/12 10:58:17;;;;;;;2.53;2.25;;;;;;;29.93;27.25;101105.98;128294;1095;22353;-77
2021/08/12 11:00:58;;;;;;;4.80;2.90;;;;;;;29.47;27.61;101099.84;128209;1095;22599;-79
2021/08/12 11:03:45;;;;;;;3.43;2.88;;;;;;;29.16;28.10;101093.63;128214;1095;22685;-77
2021/08/12 11:06:35;;;;;;;3.00;2.55;;;;;;;29.04;28.44;101086.58;128213;1095;22338;-78
2021/08/12 11:09:10;;;;;;;3.55;2.73;;;;;;;28.92;28.57;101085.19;128258;1095;22367;-79
2021/08/12 11:11:52;;;;;;;3.33;2.40;;;;;;;28.77;28.71;101086.83;128230;1095;22375;-78
2021/08/12 11:14:46;;;;;;;3.93;2.08;;;;;;;28.66;29.04;101087.08;128259;1095;22808;-77
2021/08/12 11:17:15;;;;;;;3.98;2.50;;;;;;;28.46;29.65;101094.15;128181;1095;23625;-78
2021/08/12 11:19:45;;;;;;;;;;;;;;;28.41;29.19;101090.59;128378;1095;22353;-78
2021/08/12 11:22:29;;;;;;;4.50;3.38;;;;;;;28.25;28.75;101084.27;128262;1095;22360;-78
2021/08/12 11:24:59;;;;;;;5.75;4.30;;;;;;;28.05;29.23;101082.31;128349;1095;23290;-78
2021/08/12 11:27:37;;;;;;;4.17;3.00;;;;;;;27.83;29.07;101079.81;128595;1093;23109;-79
2021/08/12 11:30:37;;;;;;;3.58;2.85;;;;;;;27.67;29.94;101079.70;128366;1095;22363;-79
2021/08/12 11:33:27;;;;;;;9.13;3.58;;;;;;;27.61;30.32;101077.22;128197;1098;22374;-77
2021/08/12 11:36:08;;;;;;;5.43;2.95;;;;;;;27.57;30.61;101076.94;127976;1098;22528;-77